sensor_id;sensor_type;location;lat;lon;timestamp;temperature;humidity
46932;DHT22;32670;51.464;11.964;2023-07-31T00:01:02;24.90;48.60
46932;DHT22;32670;51.464;11.964;2023-07-31T00:03:27;24.80;48.60
46932;DHT22;32670;51.464;11.964;2023-07-31T00:05:53;24.90;48.50
46932;DHT22;32670;51.464;11.964;2023-07-31T00:08:18;24.90;48.40
46932;DHT22;32670;51.464;11.964;2023-07-31T00:10:44;24.90;48.50
46932;DHT22;32670;51.464;11.964;2023-07-31T00:13:09;24.80;48.40
46932;DHT22;32670;51.464;11.964;2023-07-31T00:15:35;24.90;48.30
46932;DHT22;32670;51.464;11.964;2023-07-31T00:18:00;24.90;48.40
46932;DHT22;32670;51.464;11.964;2023-07-31T00:20:26;24.90;48.30
46932;DHT22;32670;51.464;11.964;2023-07-31T00:22:52;24.90;48.20
46932;DHT22;32670;51.464;11.964;2023-07-31T00:25:17;24.90;48.10
46932;DHT22;32670;51.464;11.964;2023-07-31T00:27:43;24.90;48.10
46932;DHT22;32670;51.464;11.964;2023-07-31T00:30:10;24.90;48.00
46932;DHT22;32670;51.464;11.964;2023-07-31T00:32:36;24.90;48.10
46932;DHT22;32670;51.464;11.964;2023-07-31T00:35:01;24.90;48.00
46932;DHT22;32670;51.464;11.964;2023-07-31T00:37:27;24.90;48.00
46932;DHT22;32670;51.464;11.964;2023-07-31T00:39:53;24.90;48.00
46932;DHT22;32670;51.464;11.964;2023-07-31T00:42:19;24.90;48.00
46932;DHT22;32670;51.464;11.964;2023-07-31T00:44:44;24.80;47.90
46932;DHT22;32670;51.464;11.964;2023-07-31T00:47:10;24.80;47.80
46932;DHT22;32670;51.464;11.964;2023-07-31T00:49:36;24.80;47.90
46932;DHT22;32670;51.464;11.964;2023-07-31T00:52:01;24.80;47.90
46932;DHT22;32670;51.464;11.964;2023-07-31T00:54:27;24.80;47.80
46932;DHT22;32670;51.464;11.964;2023-07-31T00:56:54;24.80;47.80
46932;DHT22;32670;51.464;11.964;2023-07-31T00:59:20;24.80;47.80
46932;DHT22;32670;51.464;11.964;2023-07-31T01:01:45;24.80;47.80
46932;DHT22;32670;51.464;11.964;2023-07-31T01:04:11;24.80;47.80
46932;DHT22;32670;51.464;11.964;2023-07-31T01:06:52;24.80;47.80
46932;DHT22;32670;51.464;11.964;2023-07-31T01:12:31;24.80;47.80
46932;DHT22;32670;51.464;11.964;2023-07-31T01:15:04;24.80;47.80
46932;DHT22;32670;51.464;11.964;2023-07-31T01:17:30;24.80;47.70
46932;DHT22;32670;51.464;11.964;2023-07-31T01:19:59;24.80;47.70
46932;DHT22;32670;51.464;11.964;2023-07-31T01:22:44;24.80;47.70
46932;DHT22;32670;51.464;11.964;2023-07-31T01:28:25;24.80;47.70
46932;DHT22;32670;51.464;11.964;2023-07-31T01:30:55;24.80;47.60
46932;DHT22;32670;51.464;11.964;2023-07-31T01:33:23;24.80;47.60
46932;DHT22;32670;51.464;11.964;2023-07-31T01:35:49;24.80;47.80
46932;DHT22;32670;51.464;11.964;2023-07-31T01:38:16;24.80;47.60
46932;DHT22;32670;51.464;11.964;2023-07-31T01:40:45;24.80;47.70
46932;DHT22;32670;51.464;11.964;2023-07-31T01:43:15;24.80;47.60
46932;DHT22;32670;51.464;11.964;2023-07-31T01:45:41;24.80;47.60
46932;DHT22;32670;51.464;11.964;2023-07-31T01:48:06;24.80;47.70
46932;DHT22;32670;51.464;11.964;2023-07-31T01:50:32;24.80;47.70
46932;DHT22;32670;51.464;11.964;2023-07-31T01:52:57;24.80;47.70
46932;DHT22;32670;51.464;11.964;2023-07-31T01:55:23;24.80;47.70
46932;DHT22;32670;51.464;11.964;2023-07-31T01:57:48;24.80;47.80
46932;DHT22;32670;51.464;11.964;2023-07-31T02:00:14;24.80;48.40
46932;DHT22;32670;51.464;11.964;2023-07-31T02:02:40;24.80;47.90
46932;DHT22;32670;51.464;11.964;2023-07-31T02:05:05;24.80;48.00
46932;DHT22;32670;51.464;11.964;2023-07-31T02:07:31;24.80;47.90
46932;DHT22;32670;51.464;11.964;2023-07-31T02:09:56;24.80;47.90
46932;DHT22;32670;51.464;11.964;2023-07-31T02:12:22;24.80;48.30
46932;DHT22;32670;51.464;11.964;2023-07-31T02:14:47;24.80;48.40
46932;DHT22;32670;51.464;11.964;2023-07-31T02:17:13;24.80;48.40
46932;DHT22;32670;51.464;11.964;2023-07-31T02:19:38;24.80;48.40
46932;DHT22;32670;51.464;11.964;2023-07-31T02:22:04;24.80;48.50
46932;DHT22;32670;51.464;11.964;2023-07-31T02:24:30;24.80;48.50
46932;DHT22;32670;51.464;11.964;2023-07-31T02:26:57;24.80;48.50
46932;DHT22;32670;51.464;11.964;2023-07-31T02:29:22;24.80;48.60
46932;DHT22;32670;51.464;11.964;2023-07-31T02:31:49;24.80;48.70
46932;DHT22;32670;51.464;11.964;2023-07-31T02:34:14;24.80;48.90
46932;DHT22;32670;51.464;11.964;2023-07-31T02:36:40;24.80;48.90
46932;DHT22;32670;51.464;11.964;2023-07-31T02:39:05;24.80;48.90
46932;DHT22;32670;51.464;11.964;2023-07-31T02:41:31;24.80;49.00
46932;DHT22;32670;51.464;11.964;2023-07-31T02:43:56;24.80;48.90
46932;DHT22;32670;51.464;11.964;2023-07-31T02:46:22;24.80;48.90
46932;DHT22;32670;51.464;11.964;2023-07-31T02:48:50;24.80;49.00
46932;DHT22;32670;51.464;11.964;2023-07-31T02:51:15;24.80;49.00
46932;DHT22;32670;51.464;11.964;2023-07-31T02:53:40;24.80;49.00
46932;DHT22;32670;51.464;11.964;2023-07-31T02:56:06;24.80;49.00
46932;DHT22;32670;51.464;11.964;2023-07-31T02:58:31;24.80;48.90
46932;DHT22;32670;51.464;11.964;2023-07-31T03:00:58;24.80;48.90
46932;DHT22;32670;51.464;11.964;2023-07-31T03:03:24;24.80;48.90
46932;DHT22;32670;51.464;11.964;2023-07-31T03:05:49;24.80;48.90
46932;DHT22;32670;51.464;11.964;2023-07-31T03:08:15;24.80;48.90
46932;DHT22;32670;51.464;11.964;2023-07-31T03:10:40;24.80;48.90
46932;DHT22;32670;51.464;11.964;2023-07-31T03:13:06;24.80;48.80
46932;DHT22;32670;51.464;11.964;2023-07-31T03:15:32;24.80;48.80
46932;DHT22;32670;51.464;11.964;2023-07-31T03:17:57;24.80;48.80
46932;DHT22;32670;51.464;11.964;2023-07-31T03:20:23;24.80;48.90
46932;DHT22;32670;51.464;11.964;2023-07-31T03:22:48;24.70;48.80
46932;DHT22;32670;51.464;11.964;2023-07-31T03:25:14;24.80;48.80
46932;DHT22;32670;51.464;11.964;2023-07-31T03:27:40;24.80;48.90
46932;DHT22;32670;51.464;11.964;2023-07-31T03:30:06;24.70;48.80
46932;DHT22;32670;51.464;11.964;2023-07-31T03:32:31;24.70;48.80
46932;DHT22;32670;51.464;11.964;2023-07-31T03:34:57;24.70;48.80
46932;DHT22;32670;51.464;11.964;2023-07-31T03:37:23;24.70;48.90
46932;DHT22;32670;51.464;11.964;2023-07-31T03:39:48;24.70;48.80
46932;DHT22;32670;51.464;11.964;2023-07-31T03:42:14;24.70;48.90
46932;DHT22;32670;51.464;11.964;2023-07-31T03:44:40;24.70;49.00
46932;DHT22;32670;51.464;11.964;2023-07-31T03:47:05;24.70;49.00
46932;DHT22;32670;51.464;11.964;2023-07-31T03:49:31;24.70;49.00
46932;DHT22;32670;51.464;11.964;2023-07-31T03:51:56;24.70;49.00
46932;DHT22;32670;51.464;11.964;2023-07-31T03:54:22;24.70;49.10
46932;DHT22;32670;51.464;11.964;2023-07-31T03:56:47;24.70;49.20
46932;DHT22;32670;51.464;11.964;2023-07-31T03:59:13;24.70;49.20
46932;DHT22;32670;51.464;11.964;2023-07-31T04:01:38;24.70;49.20
46932;DHT22;32670;51.464;11.964;2023-07-31T04:04:04;24.70;49.30
46932;DHT22;32670;51.464;11.964;2023-07-31T04:06:30;24.70;49.30
46932;DHT22;32670;51.464;11.964;2023-07-31T04:08:55;24.70;49.30
46932;DHT22;32670;51.464;11.964;2023-07-31T04:11:21;24.70;49.40
46932;DHT22;32670;51.464;11.964;2023-07-31T04:13:46;24.70;49.60
46932;DHT22;32670;51.464;11.964;2023-07-31T04:16:12;24.70;49.50
46932;DHT22;32670;51.464;11.964;2023-07-31T04:18:38;24.70;49.60
46932;DHT22;32670;51.464;11.964;2023-07-31T04:21:03;24.70;49.70
46932;DHT22;32670;51.464;11.964;2023-07-31T04:23:29;24.70;49.80
46932;DHT22;32670;51.464;11.964;2023-07-31T04:25:54;24.70;49.90
46932;DHT22;32670;51.464;11.964;2023-07-31T04:28:20;24.70;50.00
46932;DHT22;32670;51.464;11.964;2023-07-31T04:30:45;24.70;50.10
46932;DHT22;32670;51.464;11.964;2023-07-31T04:33:11;24.70;50.20
46932;DHT22;32670;51.464;11.964;2023-07-31T04:35:36;24.70;50.40
46932;DHT22;32670;51.464;11.964;2023-07-31T04:38:02;24.70;50.40
46932;DHT22;32670;51.464;11.964;2023-07-31T04:40:27;24.70;50.60
46932;DHT22;32670;51.464;11.964;2023-07-31T04:42:53;24.70;50.60
46932;DHT22;32670;51.464;11.964;2023-07-31T04:45:18;24.70;50.70
46932;DHT22;32670;51.464;11.964;2023-07-31T04:47:44;24.70;50.70
46932;DHT22;32670;51.464;11.964;2023-07-31T04:50:09;24.60;50.80
46932;DHT22;32670;51.464;11.964;2023-07-31T04:52:35;24.70;50.80
46932;DHT22;32670;51.464;11.964;2023-07-31T04:55:00;24.70;50.80
46932;DHT22;32670;51.464;11.964;2023-07-31T04:57:26;24.70;50.90
46932;DHT22;32670;51.464;11.964;2023-07-31T04:59:51;24.70;50.90
46932;DHT22;32670;51.464;11.964;2023-07-31T05:02:17;24.70;50.90
46932;DHT22;32670;51.464;11.964;2023-07-31T05:04:42;24.70;50.90
46932;DHT22;32670;51.464;11.964;2023-07-31T05:07:08;24.70;50.90
46932;DHT22;32670;51.464;11.964;2023-07-31T05:09:33;24.60;51.00
46932;DHT22;32670;51.464;11.964;2023-07-31T05:11:59;24.70;51.20
46932;DHT22;32670;51.464;11.964;2023-07-31T05:14:25;24.70;51.30
46932;DHT22;32670;51.464;11.964;2023-07-31T05:16:51;24.70;51.40
46932;DHT22;32670;51.464;11.964;2023-07-31T05:19:17;24.70;51.50
46932;DHT22;32670;51.464;11.964;2023-07-31T05:21:42;24.70;51.60
46932;DHT22;32670;51.464;11.964;2023-07-31T05:24:08;24.70;51.70
46932;DHT22;32670;51.464;11.964;2023-07-31T05:26:33;24.70;51.80
46932;DHT22;32670;51.464;11.964;2023-07-31T05:28:59;24.70;52.00
46932;DHT22;32670;51.464;11.964;2023-07-31T05:31:24;24.70;52.30
46932;DHT22;32670;51.464;11.964;2023-07-31T05:33:50;24.80;52.40
46932;DHT22;32670;51.464;11.964;2023-07-31T05:36:17;24.70;52.10
46932;DHT22;32670;51.464;11.964;2023-07-31T05:38:42;24.60;52.30
46932;DHT22;32670;51.464;11.964;2023-07-31T05:41:11;24.60;52.60
46932;DHT22;32670;51.464;11.964;2023-07-31T05:43:37;24.50;52.70
46932;DHT22;32670;51.464;11.964;2023-07-31T05:46:02;24.40;52.90
46932;DHT22;32670;51.464;11.964;2023-07-31T05:48:28;24.40;53.10
46932;DHT22;32670;51.464;11.964;2023-07-31T05:50:53;24.30;53.20
46932;DHT22;32670;51.464;11.964;2023-07-31T05:53:19;24.30;53.40
46932;DHT22;32670;51.464;11.964;2023-07-31T05:55:44;24.20;53.50
46932;DHT22;32670;51.464;11.964;2023-07-31T05:58:10;24.20;53.60
46932;DHT22;32670;51.464;11.964;2023-07-31T06:00:35;24.20;53.70
46932;DHT22;32670;51.464;11.964;2023-07-31T06:03:01;24.20;53.90
46932;DHT22;32670;51.464;11.964;2023-07-31T06:05:26;24.10;53.90
46932;DHT22;32670;51.464;11.964;2023-07-31T06:07:54;24.10;53.90
46932;DHT22;32670;51.464;11.964;2023-07-31T06:10:19;24.10;54.00
46932;DHT22;32670;51.464;11.964;2023-07-31T06:12:44;24.00;54.00
46932;DHT22;32670;51.464;11.964;2023-07-31T06:15:10;24.00;54.00
46932;DHT22;32670;51.464;11.964;2023-07-31T06:17:36;24.00;54.10
46932;DHT22;32670;51.464;11.964;2023-07-31T06:20:01;24.00;54.20
46932;DHT22;32670;51.464;11.964;2023-07-31T06:22:30;23.90;54.10
46932;DHT22;32670;51.464;11.964;2023-07-31T06:24:56;24.00;54.30
46932;DHT22;32670;51.464;11.964;2023-07-31T06:27:21;24.00;54.20
46932;DHT22;32670;51.464;11.964;2023-07-31T06:29:47;23.90;54.10
46932;DHT22;32670;51.464;11.964;2023-07-31T06:32:13;23.90;54.10
46932;DHT22;32670;51.464;11.964;2023-07-31T06:34:39;23.90;54.20
46932;DHT22;32670;51.464;11.964;2023-07-31T06:37:04;23.90;54.20
46932;DHT22;32670;51.464;11.964;2023-07-31T06:39:30;23.80;55.20
46932;DHT22;32670;51.464;11.964;2023-07-31T06:41:55;23.90;54.40
46932;DHT22;32670;51.464;11.964;2023-07-31T06:44:21;23.90;54.50
46932;DHT22;32670;51.464;11.964;2023-07-31T06:46:46;23.80;54.30
46932;DHT22;32670;51.464;11.964;2023-07-31T06:49:12;23.90;54.40
46932;DHT22;32670;51.464;11.964;2023-07-31T06:51:37;23.90;54.40
46932;DHT22;32670;51.464;11.964;2023-07-31T06:54:03;23.80;54.40
46932;DHT22;32670;51.464;11.964;2023-07-31T06:56:29;23.90;54.40
46932;DHT22;32670;51.464;11.964;2023-07-31T06:58:55;23.80;54.40
46932;DHT22;32670;51.464;11.964;2023-07-31T07:01:21;23.80;54.40
46932;DHT22;32670;51.464;11.964;2023-07-31T07:03:46;23.80;54.50
46932;DHT22;32670;51.464;11.964;2023-07-31T07:06:12;23.70;54.40
46932;DHT22;32670;51.464;11.964;2023-07-31T07:08:37;23.80;54.60
46932;DHT22;32670;51.464;11.964;2023-07-31T07:11:03;23.80;54.70
46932;DHT22;32670;51.464;11.964;2023-07-31T07:13:28;23.70;54.70
46932;DHT22;32670;51.464;11.964;2023-07-31T07:15:54;23.70;54.50
46932;DHT22;32670;51.464;11.964;2023-07-31T07:18:19;23.80;54.70
46932;DHT22;32670;51.464;11.964;2023-07-31T07:20:53;23.80;54.70
46932;DHT22;32670;51.464;11.964;2023-07-31T07:23:19;23.70;54.70
46932;DHT22;32670;51.464;11.964;2023-07-31T07:25:46;23.70;54.70
46932;DHT22;32670;51.464;11.964;2023-07-31T07:28:13;23.70;54.70
46932;DHT22;32670;51.464;11.964;2023-07-31T07:30:38;23.70;54.70
46932;DHT22;32670;51.464;11.964;2023-07-31T07:33:04;23.70;54.70
46932;DHT22;32670;51.464;11.964;2023-07-31T07:35:32;23.70;54.80
46932;DHT22;32670;51.464;11.964;2023-07-31T07:37:58;23.70;54.70
46932;DHT22;32670;51.464;11.964;2023-07-31T07:40:23;23.70;54.80
46932;DHT22;32670;51.464;11.964;2023-07-31T07:42:49;23.70;54.90
46932;DHT22;32670;51.464;11.964;2023-07-31T07:45:15;23.70;54.80
46932;DHT22;32670;51.464;11.964;2023-07-31T07:47:41;23.70;55.10
46932;DHT22;32670;51.464;11.964;2023-07-31T07:50:07;23.80;54.90
46932;DHT22;32670;51.464;11.964;2023-07-31T07:52:33;23.90;54.80
46932;DHT22;32670;51.464;11.964;2023-07-31T07:54:58;23.90;54.60
46932;DHT22;32670;51.464;11.964;2023-07-31T07:57:24;24.00;54.30
46932;DHT22;32670;51.464;11.964;2023-07-31T07:59:49;24.00;54.20
46932;DHT22;32670;51.464;11.964;2023-07-31T08:02:14;24.10;54.00
46932;DHT22;32670;51.464;11.964;2023-07-31T08:04:40;24.20;53.90
46932;DHT22;32670;51.464;11.964;2023-07-31T08:07:05;24.20;53.80
46932;DHT22;32670;51.464;11.964;2023-07-31T08:09:31;24.20;53.70
46932;DHT22;32670;51.464;11.964;2023-07-31T08:11:56;24.20;53.60
46932;DHT22;32670;51.464;11.964;2023-07-31T08:14:27;24.30;53.50
46932;DHT22;32670;51.464;11.964;2023-07-31T08:16:53;24.30;53.40
46932;DHT22;32670;51.464;11.964;2023-07-31T08:19:18;24.30;53.30
46932;DHT22;32670;51.464;11.964;2023-07-31T08:21:44;24.30;53.30
46932;DHT22;32670;51.464;11.964;2023-07-31T08:24:09;24.40;53.30
46932;DHT22;32670;51.464;11.964;2023-07-31T08:26:35;24.40;53.20
46932;DHT22;32670;51.464;11.964;2023-07-31T08:29:00;24.40;53.20
46932;DHT22;32670;51.464;11.964;2023-07-31T08:31:26;24.40;53.10
46932;DHT22;32670;51.464;11.964;2023-07-31T08:33:52;24.40;53.10
46932;DHT22;32670;51.464;11.964;2023-07-31T08:36:17;24.40;53.10
46932;DHT22;32670;51.464;11.964;2023-07-31T08:38:44;24.40;53.10
46932;DHT22;32670;51.464;11.964;2023-07-31T08:41:10;24.40;53.10
46932;DHT22;32670;51.464;11.964;2023-07-31T08:43:36;24.40;53.00
46932;DHT22;32670;51.464;11.964;2023-07-31T08:46:03;24.40;53.00
46932;DHT22;32670;51.464;11.964;2023-07-31T08:48:29;24.40;53.00
46932;DHT22;32670;51.464;11.964;2023-07-31T08:50:56;24.50;53.00
46932;DHT22;32670;51.464;11.964;2023-07-31T08:53:21;24.50;53.00
46932;DHT22;32670;51.464;11.964;2023-07-31T08:55:48;24.50;52.90
46932;DHT22;32670;51.464;11.964;2023-07-31T08:58:15;24.50;52.90
46932;DHT22;32670;51.464;11.964;2023-07-31T09:00:41;24.50;52.90
46932;DHT22;32670;51.464;11.964;2023-07-31T09:03:16;24.50;52.90
46932;DHT22;32670;51.464;11.964;2023-07-31T09:05:44;24.60;52.90
46932;DHT22;32670;51.464;11.964;2023-07-31T09:08:11;24.50;52.80
46932;DHT22;32670;51.464;11.964;2023-07-31T09:10:44;24.50;52.80
46932;DHT22;32670;51.464;11.964;2023-07-31T09:13:12;24.60;52.80
46932;DHT22;32670;51.464;11.964;2023-07-31T09:15:39;24.50;52.70
46932;DHT22;32670;51.464;11.964;2023-07-31T09:18:06;24.60;52.70
46932;DHT22;32670;51.464;11.964;2023-07-31T09:20:32;24.50;52.60
46932;DHT22;32670;51.464;11.964;2023-07-31T09:23:08;24.60;52.70
46932;DHT22;32670;51.464;11.964;2023-07-31T09:25:34;24.60;52.70
46932;DHT22;32670;51.464;11.964;2023-07-31T09:28:06;24.60;52.70
46932;DHT22;32670;51.464;11.964;2023-07-31T09:30:50;24.60;52.70
46932;DHT22;32670;51.464;11.964;2023-07-31T09:33:17;24.60;52.70
46932;DHT22;32670;51.464;11.964;2023-07-31T09:35:42;24.60;52.60
46932;DHT22;32670;51.464;11.964;2023-07-31T09:38:12;24.60;52.60
46932;DHT22;32670;51.464;11.964;2023-07-31T09:40:40;24.60;52.60
46932;DHT22;32670;51.464;11.964;2023-07-31T09:43:08;24.60;52.60
46932;DHT22;32670;51.464;11.964;2023-07-31T09:45:42;24.60;52.60
46932;DHT22;32670;51.464;11.964;2023-07-31T09:48:13;24.60;52.60
46932;DHT22;32670;51.464;11.964;2023-07-31T09:50:42;24.60;52.70
46932;DHT22;32670;51.464;11.964;2023-07-31T09:53:09;24.70;52.60
46932;DHT22;32670;51.464;11.964;2023-07-31T09:55:35;24.60;52.50
46932;DHT22;32670;51.464;11.964;2023-07-31T09:58:06;24.60;52.60
46932;DHT22;32670;51.464;11.964;2023-07-31T10:00:32;24.60;52.60
46932;DHT22;32670;51.464;11.964;2023-07-31T10:03:10;24.60;52.50
46932;DHT22;32670;51.464;11.964;2023-07-31T10:05:42;24.60;52.60
46932;DHT22;32670;51.464;11.964;2023-07-31T10:08:09;24.70;52.60
46932;DHT22;32670;51.464;11.964;2023-07-31T10:10:41;24.70;52.60
46932;DHT22;32670;51.464;11.964;2023-07-31T10:13:08;24.70;52.60
46932;DHT22;32670;51.464;11.964;2023-07-31T10:15:34;24.70;52.70
46932;DHT22;32670;51.464;11.964;2023-07-31T10:18:01;24.70;52.60
46932;DHT22;32670;51.464;11.964;2023-07-31T10:20:27;24.70;52.60
46932;DHT22;32670;51.464;11.964;2023-07-31T10:22:54;24.70;52.60
46932;DHT22;32670;51.464;11.964;2023-07-31T10:25:22;24.70;52.60
46932;DHT22;32670;51.464;11.964;2023-07-31T10:27:47;24.70;52.60
46932;DHT22;32670;51.464;11.964;2023-07-31T10:30:16;24.70;52.70
46932;DHT22;32670;51.464;11.964;2023-07-31T10:32:43;24.70;52.60
46932;DHT22;32670;51.464;11.964;2023-07-31T10:35:09;24.70;52.60
46932;DHT22;32670;51.464;11.964;2023-07-31T10:37:40;24.70;53.20
46932;DHT22;32670;51.464;11.964;2023-07-31T10:40:13;24.70;52.60
46932;DHT22;32670;51.464;11.964;2023-07-31T10:45:23;24.70;52.60
46932;DHT22;32670;51.464;11.964;2023-07-31T10:47:50;24.70;52.60
46932;DHT22;32670;51.464;11.964;2023-07-31T10:50:23;24.80;52.60
46932;DHT22;32670;51.464;11.964;2023-07-31T10:52:54;24.80;52.60
46932;DHT22;32670;51.464;11.964;2023-07-31T10:55:25;24.70;52.60
46932;DHT22;32670;51.464;11.964;2023-07-31T10:57:51;24.80;52.60
46932;DHT22;32670;51.464;11.964;2023-07-31T11:00:28;24.80;52.60
46932;DHT22;32670;51.464;11.964;2023-07-31T11:13:26;24.80;52.60
46932;DHT22;32670;51.464;11.964;2023-07-31T11:15:52;24.80;52.60
46932;DHT22;32670;51.464;11.964;2023-07-31T11:18:17;24.80;52.60
46932;DHT22;32670;51.464;11.964;2023-07-31T11:20:43;24.80;52.60
46932;DHT22;32670;51.464;11.964;2023-07-31T11:23:10;24.80;52.60
46932;DHT22;32670;51.464;11.964;2023-07-31T11:25:37;24.80;52.60
46932;DHT22;32670;51.464;11.964;2023-07-31T11:28:07;24.80;52.60
46932;DHT22;32670;51.464;11.964;2023-07-31T11:30:34;24.80;52.50
46932;DHT22;32670;51.464;11.964;2023-07-31T11:33:02;24.80;52.60
46932;DHT22;32670;51.464;11.964;2023-07-31T11:35:32;24.80;52.50
46932;DHT22;32670;51.464;11.964;2023-07-31T11:37:58;24.80;52.50
46932;DHT22;32670;51.464;11.964;2023-07-31T11:40:23;24.80;52.50
46932;DHT22;32670;51.464;11.964;2023-07-31T11:42:58;24.80;52.50
46932;DHT22;32670;51.464;11.964;2023-07-31T11:45:27;24.80;52.50
46932;DHT22;32670;51.464;11.964;2023-07-31T11:47:54;24.80;52.50
46932;DHT22;32670;51.464;11.964;2023-07-31T11:50:21;24.80;52.50
46932;DHT22;32670;51.464;11.964;2023-07-31T11:52:48;24.80;52.50
46932;DHT22;32670;51.464;11.964;2023-07-31T11:55:14;24.80;52.50
46932;DHT22;32670;51.464;11.964;2023-07-31T11:57:41;24.80;52.50
46932;DHT22;32670;51.464;11.964;2023-07-31T12:00:09;24.80;52.50
46932;DHT22;32670;51.464;11.964;2023-07-31T12:02:39;24.80;52.50
46932;DHT22;32670;51.464;11.964;2023-07-31T12:05:14;24.80;52.50
46932;DHT22;32670;51.464;11.964;2023-07-31T12:07:53;24.80;52.50
46932;DHT22;32670;51.464;11.964;2023-07-31T12:10:30;24.80;52.50
46932;DHT22;32670;51.464;11.964;2023-07-31T12:13:04;24.80;52.50
46932;DHT22;32670;51.464;11.964;2023-07-31T12:15:41;24.90;52.50
46932;DHT22;32670;51.464;11.964;2023-07-31T12:18:12;24.90;52.50
46932;DHT22;32670;51.464;11.964;2023-07-31T12:20:54;24.80;52.40
46932;DHT22;32670;51.464;11.964;2023-07-31T12:23:22;24.90;52.50
46932;DHT22;32670;51.464;11.964;2023-07-31T12:26:13;24.90;52.50
46932;DHT22;32670;51.464;11.964;2023-07-31T12:28:49;24.90;52.50
46932;DHT22;32670;51.464;11.964;2023-07-31T12:31:17;24.90;52.50
46932;DHT22;32670;51.464;11.964;2023-07-31T12:33:44;24.90;52.50
46932;DHT22;32670;51.464;11.964;2023-07-31T12:36:11;24.80;52.40
46932;DHT22;32670;51.464;11.964;2023-07-31T12:38:37;24.90;52.50
46932;DHT22;32670;51.464;11.964;2023-07-31T12:41:03;24.90;52.50
46932;DHT22;32670;51.464;11.964;2023-07-31T12:43:29;24.90;52.50
46932;DHT22;32670;51.464;11.964;2023-07-31T12:45:55;24.90;52.50
46932;DHT22;32670;51.464;11.964;2023-07-31T12:48:23;24.90;52.50
46932;DHT22;32670;51.464;11.964;2023-07-31T12:50:49;24.90;52.40
46932;DHT22;32670;51.464;11.964;2023-07-31T12:53:15;24.90;52.40
46932;DHT22;32670;51.464;11.964;2023-07-31T12:55:41;24.90;52.50
46932;DHT22;32670;51.464;11.964;2023-07-31T12:58:06;24.90;52.40
46932;DHT22;32670;51.464;11.964;2023-07-31T13:00:32;24.90;52.40
46932;DHT22;32670;51.464;11.964;2023-07-31T13:02:57;24.90;52.40
46932;DHT22;32670;51.464;11.964;2023-07-31T13:05:23;24.90;52.40
46932;DHT22;32670;51.464;11.964;2023-07-31T13:07:48;24.90;52.50
46932;DHT22;32670;51.464;11.964;2023-07-31T13:10:14;25.00;52.40
46932;DHT22;32670;51.464;11.964;2023-07-31T13:12:40;24.90;52.40
46932;DHT22;32670;51.464;11.964;2023-07-31T13:15:06;25.00;52.40
46932;DHT22;32670;51.464;11.964;2023-07-31T13:17:32;25.00;52.40
46932;DHT22;32670;51.464;11.964;2023-07-31T13:19:58;25.00;52.40
46932;DHT22;32670;51.464;11.964;2023-07-31T13:22:24;25.00;52.40
46932;DHT22;32670;51.464;11.964;2023-07-31T13:24:50;25.00;52.40
46932;DHT22;32670;51.464;11.964;2023-07-31T13:27:15;25.00;52.40
46932;DHT22;32670;51.464;11.964;2023-07-31T13:29:46;25.00;52.40
46932;DHT22;32670;51.464;11.964;2023-07-31T13:32:11;25.00;52.50
46932;DHT22;32670;51.464;11.964;2023-07-31T13:34:37;25.00;52.40
46932;DHT22;32670;51.464;11.964;2023-07-31T13:37:03;25.00;52.40
46932;DHT22;32670;51.464;11.964;2023-07-31T13:39:28;25.00;52.40
46932;DHT22;32670;51.464;11.964;2023-07-31T13:41:54;25.00;52.40
46932;DHT22;32670;51.464;11.964;2023-07-31T13:44:20;25.00;52.40
46932;DHT22;32670;51.464;11.964;2023-07-31T13:46:45;25.00;52.40
46932;DHT22;32670;51.464;11.964;2023-07-31T13:49:11;25.00;52.40
46932;DHT22;32670;51.464;11.964;2023-07-31T13:51:36;25.00;52.50
46932;DHT22;32670;51.464;11.964;2023-07-31T13:54:04;25.00;52.50
46932;DHT22;32670;51.464;11.964;2023-07-31T13:56:30;25.00;52.50
46932;DHT22;32670;51.464;11.964;2023-07-31T13:58:55;25.00;52.50
46932;DHT22;32670;51.464;11.964;2023-07-31T14:01:21;25.00;52.50
46932;DHT22;32670;51.464;11.964;2023-07-31T14:03:46;25.00;52.50
46932;DHT22;32670;51.464;11.964;2023-07-31T14:06:12;25.00;52.50
46932;DHT22;32670;51.464;11.964;2023-07-31T14:08:37;25.00;52.50
46932;DHT22;32670;51.464;11.964;2023-07-31T14:11:03;25.00;52.50
46932;DHT22;32670;51.464;11.964;2023-07-31T14:13:28;25.00;52.50
46932;DHT22;32670;51.464;11.964;2023-07-31T14:15:54;25.00;52.60
46932;DHT22;32670;51.464;11.964;2023-07-31T14:18:19;25.00;52.70
46932;DHT22;32670;51.464;11.964;2023-07-31T14:20:45;25.00;52.60
46932;DHT22;32670;51.464;11.964;2023-07-31T14:23:10;25.00;52.60
46932;DHT22;32670;51.464;11.964;2023-07-31T14:25:36;25.00;52.60
46932;DHT22;32670;51.464;11.964;2023-07-31T14:28:01;25.00;52.70
46932;DHT22;32670;51.464;11.964;2023-07-31T14:30:27;25.00;52.60
46932;DHT22;32670;51.464;11.964;2023-07-31T14:32:52;25.00;52.60
46932;DHT22;32670;51.464;11.964;2023-07-31T14:35:18;25.00;52.60
46932;DHT22;32670;51.464;11.964;2023-07-31T14:37:44;25.00;52.50
46932;DHT22;32670;51.464;11.964;2023-07-31T14:40:11;25.00;52.50
46932;DHT22;32670;51.464;11.964;2023-07-31T14:42:38;25.00;52.50
46932;DHT22;32670;51.464;11.964;2023-07-31T14:45:04;25.00;52.50
46932;DHT22;32670;51.464;11.964;2023-07-31T14:47:30;25.00;52.60
46932;DHT22;32670;51.464;11.964;2023-07-31T14:49:59;25.00;52.20
46932;DHT22;32670;51.464;11.964;2023-07-31T14:52:25;25.00;52.10
46932;DHT22;32670;51.464;11.964;2023-07-31T14:54:51;24.90;51.90
46932;DHT22;32670;51.464;11.964;2023-07-31T14:57:16;24.90;51.80
46932;DHT22;32670;51.464;11.964;2023-07-31T14:59:42;24.90;51.70
46932;DHT22;32670;51.464;11.964;2023-07-31T15:02:09;24.80;51.90
46932;DHT22;32670;51.464;11.964;2023-07-31T15:04:35;24.80;51.60
46932;DHT22;32670;51.464;11.964;2023-07-31T15:07:00;24.80;51.90
46932;DHT22;32670;51.464;11.964;2023-07-31T15:09:26;24.80;52.00
46932;DHT22;32670;51.464;11.964;2023-07-31T15:11:52;24.80;51.90
46932;DHT22;32670;51.464;11.964;2023-07-31T15:14:18;24.70;51.90
46932;DHT22;32670;51.464;11.964;2023-07-31T15:16:43;24.70;52.40
46932;DHT22;32670;51.464;11.964;2023-07-31T15:19:09;24.70;52.50
46932;DHT22;32670;51.464;11.964;2023-07-31T15:21:36;24.70;52.20
46932;DHT22;32670;51.464;11.964;2023-07-31T15:24:02;24.70;52.20
46932;DHT22;32670;51.464;11.964;2023-07-31T15:26:27;24.70;52.20
46932;DHT22;32670;51.464;11.964;2023-07-31T15:29:00;24.70;52.20
46932;DHT22;32670;51.464;11.964;2023-07-31T15:31:27;24.60;52.20